DAL613 KSYR-KDTW
Flight info
| Callsign | DAL613 |
|---|---|
| Flight time | 1h 6m |
| Altitude | 32000 |
| Route | SYR DINES DONEO TPGUN2 |
| Aircraft | B738/M-SDE2E3FGHIRWXY/LB1 |
Departure
| Time | 2026-05-03 23:57 |
|---|---|
| Airport | Syracuse Hancock International Airport (KSYR) |
Arrival
| Time | 2026-05-04 01:04 |
|---|---|
| Airport | Detroit Metropolitan Wayne County Airport (KDTW) |
| Time | Latitude | Longitude | Altitude | Speed | Heading |
|---|---|---|---|---|---|
| 2026-05-03 23:50 | 43.11353 | -76.10884 | 423 ft | 0 kts | 244° |
| 2026-05-03 23:51 | 43.11353 | -76.10883 | 423 ft | 0 kts | 244° |
| 2026-05-03 23:51 | 43.11353 | -76.10882 | 421 ft | 0 kts | 244° |
| 2026-05-03 23:51 | 43.11358 | -76.10866 | 420 ft | 3 kts | 274° |
| 2026-05-03 23:51 | 43.11351 | -76.10845 | 420 ft | 2 kts | 334° |
| 2026-05-03 23:52 | 43.11350 | -76.10844 | 422 ft | 0 kts | 334° |
| 2026-05-03 23:53 | 43.11380 | -76.10831 | 418 ft | 10 kts | 43° |
| 2026-05-03 23:54 | 43.11409 | -76.10728 | 414 ft | 13 kts | 85° |
| 2026-05-03 23:54 | 43.11410 | -76.10716 | 419 ft | 0 kts | 88° |
| 2026-05-03 23:54 | 43.11410 | -76.10695 | 412 ft | 9 kts | 89° |
| 2026-05-03 23:54 | 43.11407 | -76.10555 | 419 ft | 18 kts | 105° |
| 2026-05-03 23:55 | 43.11320 | -76.10392 | 413 ft | 24 kts | 134° |
| 2026-05-03 23:55 | 43.11204 | -76.10228 | 407 ft | 23 kts | 135° |
| 2026-05-03 23:55 | 43.11130 | -76.10125 | 412 ft | 23 kts | 135° |
| 2026-05-03 23:55 | 43.11039 | -76.09885 | 416 ft | 22 kts | 87° |
| 2026-05-03 23:56 | 43.11046 | -76.09681 | 419 ft | 21 kts | 89° |
| 2026-05-03 23:56 | 43.11050 | -76.09482 | 423 ft | 21 kts | 88° |
| 2026-05-03 23:56 | 43.11040 | -76.09306 | 420 ft | 4 kts | 124° |
| 2026-05-03 23:56 | 43.11022 | -76.09286 | 417 ft | 12 kts | 149° |
| 2026-05-03 23:57 | 43.10937 | -76.09365 | 415 ft | 23 kts | 262° |
| 2026-05-03 23:57 | 43.10914 | -76.09934 | 409 ft | 102 kts | 267° |
| 2026-05-03 23:57 | 43.10872 | -76.11211 | 556 ft | 157 kts | 268° |
| 2026-05-03 23:57 | 43.10686 | -76.12718 | 1502 ft | 153 kts | 256° |
| 2026-05-03 23:58 | 43.10326 | -76.13927 | 2750 ft | 128 kts | 241° |
| 2026-05-03 23:58 | 43.09715 | -76.14968 | 3027 ft | 162 kts | 228° |
| 2026-05-03 23:58 | 43.09127 | -76.16386 | 3298 ft | 187 kts | 265° |
| 2026-05-03 23:58 | 43.09523 | -76.18143 | 3542 ft | 211 kts | 310° |
| 2026-05-03 23:59 | 43.10824 | -76.19254 | 3880 ft | 230 kts | 334° |
| 2026-05-03 23:59 | 43.12269 | -76.20249 | 4419 ft | 234 kts | 327° |
| 2026-05-03 23:59 | 43.13621 | -76.21484 | 5072 ft | 235 kts | 320° |
| 2026-05-03 23:59 | 43.14955 | -76.22772 | 5721 ft | 242 kts | 324° |
| 2026-05-04 00:00 | 43.16140 | -76.24437 | 6203 ft | 251 kts | 294° |
| 2026-05-04 00:00 | 43.16724 | -76.26683 | 7090 ft | 251 kts | 287° |
| 2026-05-04 00:00 | 43.17235 | -76.28991 | 7839 ft | 255 kts | 286° |
| 2026-05-04 00:00 | 43.17704 | -76.31326 | 8669 ft | 258 kts | 284° |
| 2026-05-04 00:01 | 43.18187 | -76.33693 | 9437 ft | 266 kts | 285° |
| 2026-05-04 00:01 | 43.18647 | -76.36103 | 10446 ft | 259 kts | 285° |
| 2026-05-04 00:01 | 43.19160 | -76.38611 | 10889 ft | 283 kts | 281° |
| 2026-05-04 00:01 | 43.19350 | -76.41348 | 11043 ft | 303 kts | 283° |
| 2026-05-04 00:02 | 43.19926 | -76.44195 | 11509 ft | 314 kts | 288° |
| 2026-05-04 00:02 | 43.20495 | -76.47089 | 12289 ft | 315 kts | 286° |
| 2026-05-04 00:02 | 43.21013 | -76.50007 | 13056 ft | 316 kts | 285° |
| 2026-05-04 00:02 | 43.21516 | -76.52970 | 13686 ft | 321 kts | 285° |
| 2026-05-04 00:03 | 43.22007 | -76.55981 | 14393 ft | 325 kts | 285° |
| 2026-05-04 00:03 | 43.22507 | -76.59014 | 15076 ft | 329 kts | 285° |
| 2026-05-04 00:03 | 43.23018 | -76.62090 | 15760 ft | 331 kts | 285° |
| 2026-05-04 00:03 | 43.23532 | -76.65184 | 16400 ft | 335 kts | 285° |
| 2026-05-04 00:04 | 43.24050 | -76.68318 | 17049 ft | 337 kts | 285° |
| 2026-05-04 00:04 | 43.24568 | -76.71474 | 17651 ft | 341 kts | 285° |
| 2026-05-04 00:04 | 43.25088 | -76.74657 | 18269 ft | 343 kts | 285° |
| 2026-05-04 00:04 | 43.25614 | -76.77878 | 18838 ft | 347 kts | 285° |
| 2026-05-04 00:05 | 43.26144 | -76.81127 | 19391 ft | 350 kts | 285° |
| 2026-05-04 00:05 | 43.26669 | -76.84360 | 19944 ft | 353 kts | 285° |
| 2026-05-04 00:05 | 43.27206 | -76.87665 | 20517 ft | 356 kts | 285° |
| 2026-05-04 00:05 | 43.27752 | -76.91040 | 21086 ft | 358 kts | 285° |
| 2026-05-04 00:06 | 43.28287 | -76.94348 | 21538 ft | 363 kts | 285° |
| 2026-05-04 00:06 | 43.28841 | -76.97788 | 22028 ft | 366 kts | 285° |
| 2026-05-04 00:06 | 43.29384 | -77.01161 | 22521 ft | 368 kts | 284° |
| 2026-05-04 00:06 | 43.29937 | -77.04598 | 23014 ft | 370 kts | 284° |
| 2026-05-04 00:07 | 43.30482 | -77.08069 | 23470 ft | 374 kts | 282° |
| 2026-05-04 00:07 | 43.30712 | -77.11652 | 23923 ft | 379 kts | 273° |
| 2026-05-04 00:07 | 43.30587 | -77.15289 | 24363 ft | 384 kts | 266° |
| 2026-05-04 00:07 | 43.30065 | -77.18918 | 24761 ft | 390 kts | 260° |
| 2026-05-04 00:08 | 43.29382 | -77.22539 | 25150 ft | 394 kts | 259° |
| 2026-05-04 00:08 | 43.28664 | -77.26186 | 25526 ft | 396 kts | 259° |
| 2026-05-04 00:08 | 43.27942 | -77.29842 | 25922 ft | 398 kts | 258° |
| 2026-05-04 00:08 | 43.27216 | -77.33523 | 26301 ft | 400 kts | 259° |
| 2026-05-04 00:09 | 43.26491 | -77.37223 | 26656 ft | 403 kts | 259° |
| 2026-05-04 00:09 | 43.25764 | -77.40943 | 27011 ft | 405 kts | 259° |
| 2026-05-04 00:09 | 43.25042 | -77.44686 | 27384 ft | 407 kts | 259° |
| 2026-05-04 00:09 | 43.24315 | -77.48451 | 27670 ft | 410 kts | 259° |
| 2026-05-04 00:10 | 43.23581 | -77.52250 | 27966 ft | 413 kts | 258° |
| 2026-05-04 00:10 | 43.22843 | -77.56060 | 28294 ft | 414 kts | 259° |
| 2026-05-04 00:10 | 43.22100 | -77.59887 | 28595 ft | 416 kts | 258° |
| 2026-05-04 00:10 | 43.21354 | -77.63726 | 28887 ft | 419 kts | 258° |
| 2026-05-04 00:11 | 43.20598 | -77.67607 | 29172 ft | 420 kts | 258° |
| 2026-05-04 00:11 | 43.19835 | -77.71479 | 29430 ft | 422 kts | 258° |
| 2026-05-04 00:11 | 43.19073 | -77.75376 | 29710 ft | 424 kts | 258° |
| 2026-05-04 00:11 | 43.18312 | -77.79268 | 30087 ft | 422 kts | 258° |
| 2026-05-04 00:12 | 43.17562 | -77.83092 | 30497 ft | 420 kts | 258° |
| 2026-05-04 00:12 | 43.16805 | -77.86948 | 30820 ft | 419 kts | 258° |
| 2026-05-04 00:12 | 43.16045 | -77.90813 | 31073 ft | 421 kts | 258° |
| 2026-05-04 00:12 | 43.15280 | -77.94679 | 31398 ft | 421 kts | 258° |
| 2026-05-04 00:13 | 43.14513 | -77.98541 | 31800 ft | 419 kts | 258° |
| 2026-05-04 00:13 | 43.13747 | -78.02405 | 31879 ft | 423 kts | 258° |
| 2026-05-04 00:13 | 43.12204 | -78.10169 | 31873 ft | 414 kts | 258° |
| 2026-05-04 00:14 | 43.11458 | -78.13892 | 31869 ft | 398 kts | 258° |
| 2026-05-04 00:14 | 43.10735 | -78.17497 | 31877 ft | 389 kts | 258° |
| 2026-05-04 00:14 | 43.09310 | -78.24627 | 31898 ft | 389 kts | 258° |
| 2026-05-04 00:15 | 43.07876 | -78.31780 | 31892 ft | 390 kts | 258° |
| 2026-05-04 00:15 | 43.06439 | -78.38902 | 31892 ft | 391 kts | 258° |
| 2026-05-04 00:16 | 43.04987 | -78.46088 | 31892 ft | 391 kts | 258° |
| 2026-05-04 00:16 | 43.03531 | -78.53254 | 31887 ft | 391 kts | 258° |
| 2026-05-04 00:17 | 43.02072 | -78.60399 | 31888 ft | 390 kts | 258° |
| 2026-05-04 00:17 | 43.00614 | -78.67520 | 31891 ft | 388 kts | 258° |
| 2026-05-04 00:18 | 42.99155 | -78.74621 | 31898 ft | 388 kts | 258° |
| 2026-05-04 00:18 | 42.97696 | -78.81708 | 31896 ft | 387 kts | 258° |
| 2026-05-04 00:19 | 42.96234 | -78.88783 | 31894 ft | 387 kts | 258° |
| 2026-05-04 00:19 | 42.94767 | -78.95849 | 31892 ft | 387 kts | 257° |
| 2026-05-04 00:20 | 42.93297 | -79.02904 | 31886 ft | 386 kts | 257° |
| 2026-05-04 00:20 | 42.91840 | -79.09904 | 31880 ft | 386 kts | 257° |
| 2026-05-04 00:21 | 42.90363 | -79.16943 | 31875 ft | 385 kts | 257° |
| 2026-05-04 00:21 | 42.88883 | -79.23973 | 31877 ft | 385 kts | 257° |
| 2026-05-04 00:22 | 42.87402 | -79.30985 | 31885 ft | 385 kts | 257° |
| 2026-05-04 00:22 | 42.85919 | -79.37998 | 31878 ft | 385 kts | 257° |
| 2026-05-04 00:23 | 42.84427 | -79.45020 | 31891 ft | 386 kts | 257° |
| 2026-05-04 00:23 | 42.82929 | -79.52045 | 31887 ft | 386 kts | 257° |
| 2026-05-04 00:24 | 42.81425 | -79.59077 | 31890 ft | 387 kts | 257° |
| 2026-05-04 00:24 | 42.79919 | -79.66107 | 31888 ft | 387 kts | 257° |
| 2026-05-04 00:25 | 42.78431 | -79.73135 | 31882 ft | 385 kts | 261° |
| 2026-05-04 00:25 | 42.77715 | -79.80316 | 31876 ft | 383 kts | 267° |
| 2026-05-04 00:26 | 42.77198 | -79.87543 | 31880 ft | 383 kts | 266° |
| 2026-05-04 00:26 | 42.76637 | -79.94752 | 31877 ft | 383 kts | 266° |
| 2026-05-04 00:27 | 42.76037 | -80.01946 | 31882 ft | 383 kts | 266° |
| 2026-05-04 00:27 | 42.75424 | -80.09096 | 31878 ft | 382 kts | 266° |
| 2026-05-04 00:28 | 42.74800 | -80.16274 | 31883 ft | 382 kts | 266° |
| 2026-05-04 00:28 | 42.74177 | -80.23446 | 31876 ft | 381 kts | 266° |
| 2026-05-04 00:29 | 42.73555 | -80.30597 | 31880 ft | 380 kts | 266° |
| 2026-05-04 00:29 | 42.72927 | -80.37738 | 31878 ft | 380 kts | 267° |
| 2026-05-04 00:30 | 42.72575 | -80.44880 | 31879 ft | 378 kts | 269° |
| 2026-05-04 00:30 | 42.72312 | -80.52018 | 31882 ft | 378 kts | 269° |
| 2026-05-04 00:31 | 42.72025 | -80.59111 | 31867 ft | 368 kts | 269° |
| 2026-05-04 00:31 | 42.71733 | -80.65890 | 31584 ft | 352 kts | 269° |
| 2026-05-04 00:32 | 42.71586 | -80.69179 | 31286 ft | 347 kts | 269° |
| 2026-05-04 00:32 | 42.71440 | -80.72438 | 30975 ft | 343 kts | 269° |
| 2026-05-04 00:32 | 42.71296 | -80.75661 | 30606 ft | 341 kts | 269° |
| 2026-05-04 00:32 | 42.71151 | -80.78865 | 30272 ft | 338 kts | 269° |
| 2026-05-04 00:33 | 42.71007 | -80.82040 | 29927 ft | 335 kts | 269° |
| 2026-05-04 00:33 | 42.70718 | -80.88335 | 29223 ft | 330 kts | 269° |
| 2026-05-04 00:33 | 42.70574 | -80.91437 | 28866 ft | 327 kts | 269° |
| 2026-05-04 00:34 | 42.70431 | -80.94475 | 28514 ft | 325 kts | 269° |
| 2026-05-04 00:34 | 42.70287 | -80.97528 | 28161 ft | 323 kts | 269° |
| 2026-05-04 00:34 | 42.70142 | -81.00559 | 27809 ft | 320 kts | 269° |
| 2026-05-04 00:34 | 42.69999 | -81.03569 | 27463 ft | 317 kts | 269° |
| 2026-05-04 00:35 | 42.69859 | -81.06555 | 27115 ft | 315 kts | 269° |
| 2026-05-04 00:35 | 42.69717 | -81.09519 | 26774 ft | 313 kts | 269° |
| 2026-05-04 00:35 | 42.69574 | -81.12464 | 26432 ft | 311 kts | 269° |
| 2026-05-04 00:35 | 42.69431 | -81.15381 | 26098 ft | 309 kts | 269° |
| 2026-05-04 00:36 | 42.69289 | -81.18278 | 25765 ft | 306 kts | 269° |
| 2026-05-04 00:36 | 42.69148 | -81.21156 | 25436 ft | 304 kts | 269° |
| 2026-05-04 00:36 | 42.69007 | -81.24018 | 25100 ft | 302 kts | 269° |
| 2026-05-04 00:36 | 42.68868 | -81.26848 | 24777 ft | 299 kts | 269° |
| 2026-05-04 00:37 | 42.68728 | -81.29661 | 24441 ft | 297 kts | 269° |
| 2026-05-04 00:37 | 42.68588 | -81.32449 | 24111 ft | 295 kts | 269° |
| 2026-05-04 00:37 | 42.68446 | -81.35224 | 23779 ft | 293 kts | 268° |
| 2026-05-04 00:37 | 42.68242 | -81.37975 | 23464 ft | 293 kts | 266° |
| 2026-05-04 00:38 | 42.68008 | -81.40731 | 23155 ft | 301 kts | 266° |
| 2026-05-04 00:38 | 42.67755 | -81.43587 | 22819 ft | 308 kts | 265° |
| 2026-05-04 00:38 | 42.67498 | -81.46496 | 22470 ft | 311 kts | 265° |
| 2026-05-04 00:38 | 42.67242 | -81.49413 | 22113 ft | 311 kts | 265° |
| 2026-05-04 00:39 | 42.66988 | -81.52323 | 21765 ft | 310 kts | 265° |
| 2026-05-04 00:39 | 42.66736 | -81.55231 | 21417 ft | 310 kts | 265° |
| 2026-05-04 00:39 | 42.66486 | -81.58132 | 21069 ft | 308 kts | 265° |
| 2026-05-04 00:39 | 42.66237 | -81.61013 | 20734 ft | 306 kts | 265° |
| 2026-05-04 00:40 | 42.65989 | -81.63881 | 20395 ft | 304 kts | 265° |
| 2026-05-04 00:40 | 42.65743 | -81.66716 | 20060 ft | 302 kts | 265° |
| 2026-05-04 00:40 | 42.65500 | -81.69536 | 19728 ft | 299 kts | 265° |
| 2026-05-04 00:40 | 42.65256 | -81.72333 | 19400 ft | 297 kts | 265° |
| 2026-05-04 00:41 | 42.65013 | -81.75108 | 19075 ft | 295 kts | 265° |
| 2026-05-04 00:41 | 42.64770 | -81.77859 | 18746 ft | 293 kts | 265° |
| 2026-05-04 00:41 | 42.64529 | -81.80601 | 18428 ft | 291 kts | 265° |
| 2026-05-04 00:41 | 42.64290 | -81.83318 | 18105 ft | 289 kts | 265° |
| 2026-05-04 00:42 | 42.64050 | -81.86016 | 17792 ft | 287 kts | 265° |
| 2026-05-04 00:42 | 42.63812 | -81.88700 | 17469 ft | 285 kts | 265° |
| 2026-05-04 00:42 | 42.63580 | -81.91334 | 17104 ft | 285 kts | 265° |
| 2026-05-04 00:42 | 42.63340 | -81.94046 | 16660 ft | 288 kts | 264° |
| 2026-05-04 00:43 | 42.63098 | -81.96744 | 16292 ft | 288 kts | 264° |
| 2026-05-04 00:43 | 42.62856 | -81.99433 | 15981 ft | 286 kts | 264° |
| 2026-05-04 00:43 | 42.62611 | -82.02090 | 15658 ft | 283 kts | 264° |
| 2026-05-04 00:43 | 42.62358 | -82.04743 | 15367 ft | 283 kts | 265° |
| 2026-05-04 00:44 | 42.62148 | -82.07392 | 15060 ft | 283 kts | 264° |
| 2026-05-04 00:44 | 42.61916 | -82.10041 | 14750 ft | 282 kts | 264° |
| 2026-05-04 00:44 | 42.61681 | -82.12664 | 14438 ft | 279 kts | 264° |
| 2026-05-04 00:44 | 42.61436 | -82.15266 | 14148 ft | 275 kts | 263° |
| 2026-05-04 00:45 | 42.61183 | -82.17821 | 13838 ft | 271 kts | 265° |
| 2026-05-04 00:45 | 42.60968 | -82.20358 | 13545 ft | 270 kts | 264° |
| 2026-05-04 00:45 | 42.60813 | -82.22028 | 13354 ft | 268 kts | 264° |
| 2026-05-04 00:45 | 42.60580 | -82.24532 | 13069 ft | 266 kts | 264° |
| 2026-05-04 00:46 | 42.60350 | -82.27013 | 12774 ft | 264 kts | 263° |
| 2026-05-04 00:46 | 42.60099 | -82.29489 | 12483 ft | 266 kts | 264° |
| 2026-05-04 00:46 | 42.59859 | -82.31987 | 12215 ft | 268 kts | 263° |
| 2026-05-04 00:46 | 42.59570 | -82.35271 | 11807 ft | 262 kts | 266° |
| 2026-05-04 00:47 | 42.59458 | -82.36931 | 11583 ft | 262 kts | 265° |
| 2026-05-04 00:47 | 42.59193 | -82.39408 | 11305 ft | 266 kts | 261° |
| 2026-05-04 00:47 | 42.58927 | -82.41909 | 10999 ft | 270 kts | 262° |
| 2026-05-04 00:47 | 42.58447 | -82.44351 | 10717 ft | 277 kts | 246° |
| 2026-05-04 00:48 | 42.57642 | -82.46790 | 10449 ft | 280 kts | 249° |
| 2026-05-04 00:48 | 42.56852 | -82.49153 | 10166 ft | 278 kts | 248° |
| 2026-05-04 00:48 | 42.56113 | -82.51507 | 9922 ft | 268 kts | 248° |
| 2026-05-04 00:48 | 42.55346 | -82.53728 | 9934 ft | 252 kts | 246° |
| 2026-05-04 00:49 | 42.54640 | -82.55975 | 9450 ft | 266 kts | 249° |
| 2026-05-04 00:49 | 42.53934 | -82.58292 | 9097 ft | 268 kts | 248° |
| 2026-05-04 00:49 | 42.53215 | -82.60608 | 8832 ft | 263 kts | 248° |
| 2026-05-04 00:49 | 42.52519 | -82.62863 | 8564 ft | 257 kts | 248° |
| 2026-05-04 00:50 | 42.51830 | -82.65082 | 8311 ft | 254 kts | 248° |
| 2026-05-04 00:50 | 42.51147 | -82.67275 | 8049 ft | 252 kts | 248° |
| 2026-05-04 00:50 | 42.50465 | -82.69438 | 7810 ft | 247 kts | 248° |
| 2026-05-04 00:50 | 42.49785 | -82.71561 | 7563 ft | 245 kts | 247° |
| 2026-05-04 00:51 | 42.49112 | -82.73653 | 7320 ft | 240 kts | 247° |
| 2026-05-04 00:51 | 42.48552 | -82.75759 | 7073 ft | 237 kts | 262° |
| 2026-05-04 00:51 | 42.48603 | -82.77950 | 7030 ft | 230 kts | 276° |
| 2026-05-04 00:51 | 42.49179 | -82.79974 | 6988 ft | 231 kts | 295° |
| 2026-05-04 00:52 | 42.49950 | -82.81787 | 6989 ft | 212 kts | 293° |
| 2026-05-04 00:52 | 42.50634 | -82.83463 | 6955 ft | 194 kts | 292° |
| 2026-05-04 00:52 | 42.51267 | -82.85040 | 6957 ft | 187 kts | 292° |
| 2026-05-04 00:52 | 42.51896 | -82.86590 | 6970 ft | 189 kts | 292° |
| 2026-05-04 00:53 | 42.52529 | -82.88165 | 6962 ft | 191 kts | 292° |
| 2026-05-04 00:53 | 42.53176 | -82.89740 | 6971 ft | 192 kts | 292° |
| 2026-05-04 00:53 | 42.53806 | -82.91330 | 6978 ft | 191 kts | 292° |
| 2026-05-04 00:53 | 42.54439 | -82.92919 | 6970 ft | 194 kts | 293° |
| 2026-05-04 00:54 | 42.54990 | -82.94542 | 6855 ft | 185 kts | 271° |
| 2026-05-04 00:54 | 42.54690 | -82.96162 | 6819 ft | 178 kts | 247° |
| 2026-05-04 00:54 | 42.54113 | -82.97660 | 6696 ft | 183 kts | 242° |
| 2026-05-04 00:54 | 42.53473 | -82.99152 | 6587 ft | 183 kts | 242° |
| 2026-05-04 00:55 | 42.52833 | -83.00629 | 6460 ft | 180 kts | 241° |
| 2026-05-04 00:55 | 42.52200 | -83.02081 | 6389 ft | 179 kts | 242° |
| 2026-05-04 00:55 | 42.51568 | -83.03526 | 6274 ft | 177 kts | 241° |
| 2026-05-04 00:55 | 42.50945 | -83.04956 | 6178 ft | 174 kts | 242° |
| 2026-05-04 00:56 | 42.50328 | -83.06368 | 6085 ft | 176 kts | 242° |
| 2026-05-04 00:56 | 42.49693 | -83.07809 | 5985 ft | 179 kts | 241° |
| 2026-05-04 00:56 | 42.49054 | -83.09261 | 5881 ft | 179 kts | 240° |
| 2026-05-04 00:56 | 42.48411 | -83.10703 | 5762 ft | 178 kts | 241° |
| 2026-05-04 00:57 | 42.47790 | -83.12127 | 5658 ft | 175 kts | 241° |
| 2026-05-04 00:57 | 42.47174 | -83.13541 | 5559 ft | 174 kts | 241° |
| 2026-05-04 00:57 | 42.46510 | -83.14904 | 5450 ft | 176 kts | 228° |
| 2026-05-04 00:57 | 42.45480 | -83.15831 | 5369 ft | 179 kts | 217° |
| 2026-05-04 00:58 | 42.44411 | -83.16722 | 5268 ft | 183 kts | 217° |
| 2026-05-04 00:58 | 42.43315 | -83.17598 | 5290 ft | 181 kts | 216° |
| 2026-05-04 00:58 | 42.42187 | -83.18456 | 5092 ft | 189 kts | 214° |
| 2026-05-04 00:58 | 42.41028 | -83.19317 | 4843 ft | 190 kts | 214° |
| 2026-05-04 00:59 | 42.39886 | -83.20163 | 4593 ft | 184 kts | 214° |
| 2026-05-04 00:59 | 42.38778 | -83.20987 | 4339 ft | 179 kts | 214° |
| 2026-05-04 00:59 | 42.37696 | -83.21784 | 4105 ft | 176 kts | 214° |
| 2026-05-04 00:59 | 42.36616 | -83.22583 | 3880 ft | 177 kts | 214° |
| 2026-05-04 01:00 | 42.35543 | -83.23363 | 3650 ft | 173 kts | 213° |
| 2026-05-04 01:00 | 42.34499 | -83.24137 | 3427 ft | 168 kts | 213° |
| 2026-05-04 01:00 | 42.33507 | -83.24871 | 3197 ft | 155 kts | 214° |
| 2026-05-04 01:00 | 42.32601 | -83.25547 | 2992 ft | 145 kts | 214° |
| 2026-05-04 01:01 | 42.31645 | -83.26256 | 2821 ft | 170 kts | 212° |
| 2026-05-04 01:01 | 42.30578 | -83.27045 | 2573 ft | 176 kts | 211° |
| 2026-05-04 01:01 | 42.29532 | -83.27851 | 2329 ft | 170 kts | 213° |
| 2026-05-04 01:01 | 42.28468 | -83.28598 | 2103 ft | 174 kts | 205° |
| 2026-05-04 01:02 | 42.27396 | -83.29361 | 1880 ft | 176 kts | 211° |
| 2026-05-04 01:02 | 42.26321 | -83.30186 | 1643 ft | 178 kts | 209° |
| 2026-05-04 01:02 | 42.25263 | -83.30966 | 1413 ft | 168 kts | 208° |
| 2026-05-04 01:02 | 42.24290 | -83.31686 | 1193 ft | 153 kts | 208° |
| 2026-05-04 01:03 | 42.23400 | -83.32345 | 1001 ft | 142 kts | 208° |
| 2026-05-04 01:03 | 42.22541 | -83.32977 | 812 ft | 140 kts | 208° |
| 2026-05-04 01:03 | 42.21688 | -83.33609 | 651 ft | 136 kts | 208° |
| 2026-05-04 01:03 | 42.21007 | -83.34107 | 651 ft | 81 kts | 208° |
| 2026-05-04 01:04 | 42.20671 | -83.34393 | 649 ft | 44 kts | 219° |
| 2026-05-04 01:04 | 42.20549 | -83.34615 | 649 ft | 26 kts | 239° |
| 2026-05-04 01:04 | 42.20434 | -83.34779 | 649 ft | 24 kts | 216° |
| 2026-05-04 01:04 | 42.20298 | -83.34893 | 649 ft | 23 kts | 208° |
| 2026-05-04 01:05 | 42.20182 | -83.35015 | 651 ft | 22 kts | 261° |
| 2026-05-04 01:05 | 42.20178 | -83.35219 | 649 ft | 21 kts | 269° |
| 2026-05-04 01:05 | 42.20171 | -83.35416 | 650 ft | 21 kts | 267° |
| 2026-05-04 01:05 | 42.20167 | -83.35608 | 650 ft | 20 kts | 270° |
| 2026-05-04 01:06 | 42.20167 | -83.35795 | 649 ft | 20 kts | 270° |
| 2026-05-04 01:06 | 42.20169 | -83.35968 | 650 ft | 12 kts | 289° |
| 2026-05-04 01:06 | 42.20247 | -83.36003 | 649 ft | 18 kts | 6° |
| 2026-05-04 01:06 | 42.20384 | -83.35933 | 649 ft | 22 kts | 27° |
| 2026-05-04 01:07 | 42.20496 | -83.35981 | 649 ft | 8 kts | 306° |